createdAt,value
2018-03-26T00:00:09.156Z,928.81
2018-03-26T00:01:09.156Z,928.80
2018-03-26T00:02:09.147Z,928.81
2018-03-26T00:03:09.142Z,928.80
2018-03-26T00:04:09.137Z,928.82
2018-03-26T00:05:09.132Z,928.84
2018-03-26T00:06:09.137Z,928.82
2018-03-26T00:07:09.124Z,928.84
2018-03-26T00:08:09.120Z,928.80
2018-03-26T00:09:09.115Z,928.80
2018-03-26T00:10:09.113Z,928.74
2018-03-26T00:11:09.106Z,928.74
2018-03-26T00:12:09.100Z,928.73
2018-03-26T00:13:09.096Z,928.76
2018-03-26T00:14:09.093Z,928.77
2018-03-26T00:15:09.089Z,928.72
2018-03-26T00:16:09.083Z,928.73
2018-03-26T00:17:09.080Z,928.70
2018-03-26T00:18:09.075Z,928.65
2018-03-26T00:19:09.082Z,928.67
2018-03-26T00:20:09.065Z,928.69
2018-03-26T00:21:09.070Z,928.71
2018-03-26T00:22:09.057Z,928.71
2018-03-26T00:23:09.053Z,928.71
2018-03-26T00:24:09.049Z,928.65
2018-03-26T00:25:09.044Z,928.68
2018-03-26T00:26:09.040Z,928.65
2018-03-26T00:27:09.090Z,928.64
2018-03-26T00:28:09.031Z,928.66
2018-03-26T00:29:09.031Z,928.64
2018-03-26T00:30:09.024Z,928.62
2018-03-26T00:31:09.020Z,928.65
2018-03-26T00:32:09.014Z,928.63
2018-03-26T00:33:09.009Z,928.66
2018-03-26T00:34:09.006Z,928.64
2018-03-26T00:35:09.003Z,928.61
2018-03-26T00:36:08.996Z,928.58
2018-03-26T00:37:08.993Z,928.57
2018-03-26T00:38:08.989Z,928.58
2018-03-26T00:39:08.984Z,928.52
2018-03-26T00:40:08.980Z,928.52
2018-03-26T00:41:08.986Z,928.52
2018-03-26T00:42:08.974Z,928.55
2018-03-26T00:43:08.968Z,928.52
2018-03-26T00:44:08.962Z,928.52
2018-03-26T00:45:08.958Z,928.55
2018-03-26T00:46:08.955Z,928.56
2018-03-26T00:47:08.951Z,928.53
2018-03-26T00:48:08.946Z,928.52
2018-03-26T00:49:08.942Z,928.52
2018-03-26T00:50:08.938Z,928.50
2018-03-26T00:51:08.933Z,928.53
2018-03-26T00:52:08.931Z,928.54
2018-03-26T00:53:08.926Z,928.56
2018-03-26T00:54:08.921Z,928.56
2018-03-26T00:55:08.917Z,928.58
2018-03-26T00:56:08.910Z,928.55
2018-03-26T00:57:08.913Z,928.54
2018-03-26T00:58:08.901Z,928.55
2018-03-26T00:59:08.896Z,928.54
2018-03-26T01:00:08.894Z,928.51
2018-03-26T01:01:08.887Z,928.48
2018-03-26T01:02:08.884Z,928.50
2018-03-26T01:03:08.879Z,928.52
2018-03-26T01:04:08.874Z,928.53
2018-03-26T01:05:08.871Z,928.49
2018-03-26T01:06:08.865Z,928.44
2018-03-26T01:07:08.863Z,928.42
2018-03-26T01:08:08.855Z,928.40
2018-03-26T01:09:08.851Z,928.37
2018-03-26T01:10:08.847Z,928.39
2018-03-26T01:11:08.842Z,928.38
2018-03-26T01:12:08.838Z,928.35
2018-03-26T01:13:08.833Z,928.38
2018-03-26T01:14:08.829Z,928.41
2018-03-26T01:15:08.825Z,928.37
2018-03-26T01:16:08.823Z,928.42
2018-03-26T01:17:08.815Z,928.39
2018-03-26T01:18:08.811Z,928.40
2018-03-26T01:19:08.806Z,928.42
2018-03-26T01:20:08.802Z,928.37
2018-03-26T01:21:08.796Z,928.42
2018-03-26T01:22:08.793Z,928.41
2018-03-26T01:23:08.791Z,928.38
2018-03-26T01:24:08.782Z,928.36
2018-03-26T01:25:08.778Z,928.39
2018-03-26T01:26:08.775Z,928.33
2018-03-26T01:27:08.770Z,928.39
2018-03-26T01:28:08.764Z,928.33
2018-03-26T01:29:08.761Z,928.40
2018-03-26T01:30:08.755Z,928.37
2018-03-26T01:31:08.750Z,928.39
2018-03-26T01:32:08.746Z,928.40
2018-03-26T01:33:08.739Z,928.36
2018-03-26T01:34:08.737Z,928.39
2018-03-26T01:35:08.733Z,928.39
2018-03-26T01:36:08.732Z,928.36
2018-03-26T01:37:08.725Z,928.38
2018-03-26T01:38:08.719Z,928.37
2018-03-26T01:39:08.714Z,928.38
2018-03-26T01:40:08.709Z,928.40
2018-03-26T01:41:08.705Z,928.35
2018-03-26T01:42:08.700Z,928.37
2018-03-26T01:43:08.695Z,928.38
2018-03-26T01:44:08.690Z,928.35
2018-03-26T01:45:08.688Z,928.32
2018-03-26T01:46:08.684Z,928.34
2018-03-26T01:47:08.678Z,928.33
2018-03-26T01:48:08.673Z,928.33
2018-03-26T01:49:08.667Z,928.31
2018-03-26T01:50:08.663Z,928.36
2018-03-26T01:51:08.658Z,928.34
2018-03-26T01:52:08.653Z,928.35
2018-03-26T01:53:08.647Z,928.34
2018-03-26T01:54:08.643Z,928.38
2018-03-26T01:55:08.639Z,928.40
2018-03-26T01:56:08.637Z,928.42
2018-03-26T01:57:08.628Z,928.43
2018-03-26T01:58:08.632Z,928.46
2018-03-26T01:59:08.620Z,928.47
2018-03-26T02:00:08.613Z,928.45
2018-03-26T02:01:08.608Z,928.46
2018-03-26T02:02:08.604Z,928.50
2018-03-26T02:03:08.599Z,928.49
2018-03-26T02:04:08.594Z,928.50
2018-03-26T02:05:08.588Z,928.44
2018-03-26T02:06:08.585Z,928.46
2018-03-26T02:07:08.578Z,928.44
2018-03-26T02:08:08.576Z,928.46
2018-03-26T02:09:08.568Z,928.47
2018-03-26T02:10:08.564Z,928.50
2018-03-26T02:11:08.559Z,928.46
2018-03-26T02:12:08.554Z,928.44
2018-03-26T02:13:08.548Z,928.50
2018-03-26T02:14:08.545Z,928.42
2018-03-26T02:15:08.540Z,928.44
2018-03-26T02:16:08.539Z,928.47
2018-03-26T02:17:08.529Z,928.49
2018-03-26T02:18:08.525Z,928.49
2018-03-26T02:19:08.519Z,928.47
2018-03-26T02:20:08.514Z,928.51
2018-03-26T02:21:08.509Z,928.46
2018-03-26T02:22:08.505Z,928.47
2018-03-26T02:23:08.499Z,928.49
2018-03-26T02:24:08.495Z,928.51
2018-03-26T02:25:08.491Z,928.48
2018-03-26T02:26:08.484Z,928.47
2018-03-26T02:27:08.481Z,928.47
2018-03-26T02:28:08.476Z,928.51
2018-03-26T02:29:08.470Z,928.51
2018-03-26T02:30:08.469Z,928.51
2018-03-26T02:31:08.462Z,928.51
2018-03-26T02:32:08.458Z,928.56
2018-03-26T02:33:08.450Z,928.55
2018-03-26T02:34:08.446Z,928.61
2018-03-26T02:35:08.448Z,928.63
2018-03-26T02:36:08.436Z,928.61
2018-03-26T02:37:08.430Z,928.66
2018-03-26T02:38:08.439Z,928.64
2018-03-26T02:39:08.428Z,928.69
2018-03-26T02:40:08.416Z,928.67
2018-03-26T02:41:08.489Z,928.72
2018-03-26T02:42:08.407Z,928.78
2018-03-26T02:43:08.402Z,928.79
2018-03-26T02:44:08.397Z,928.80
2018-03-26T02:45:08.392Z,928.81
2018-03-26T02:46:08.386Z,928.80
2018-03-26T02:47:08.381Z,928.87
2018-03-26T02:48:08.376Z,928.91
2018-03-26T02:49:08.370Z,928.90
2018-03-26T02:50:08.371Z,928.89
2018-03-26T02:51:08.366Z,928.88
2018-03-26T02:52:08.356Z,928.88
2018-03-26T02:53:08.357Z,928.78
2018-03-26T02:54:08.356Z,928.72
2018-03-26T02:55:08.342Z,928.74
2018-03-26T02:56:08.337Z,928.75
2018-03-26T02:57:08.333Z,928.81
2018-03-26T02:58:08.330Z,928.84
2018-03-26T02:59:08.325Z,928.91
2018-03-26T03:00:08.315Z,928.88
2018-03-26T03:01:08.311Z,928.91
2018-03-26T03:02:08.306Z,928.88
2018-03-26T03:03:08.300Z,928.88
2018-03-26T03:04:08.295Z,928.87
2018-03-26T03:05:08.295Z,928.88
2018-03-26T03:06:08.286Z,928.93
2018-03-26T03:07:08.282Z,928.95
2018-03-26T03:08:08.275Z,928.92
2018-03-26T03:09:08.271Z,928.94
2018-03-26T03:10:08.266Z,928.97
2018-03-26T03:11:08.267Z,929.01
2018-03-26T03:12:08.256Z,929.02
2018-03-26T03:13:08.251Z,929.05
2018-03-26T03:14:08.246Z,929.03
2018-03-26T03:15:08.242Z,929.01
2018-03-26T03:16:08.236Z,929.00
2018-03-26T03:17:08.231Z,928.97
2018-03-26T03:18:08.227Z,929.03
2018-03-26T03:19:08.223Z,929.02
2018-03-26T03:20:08.217Z,929.02
2018-03-26T03:21:08.212Z,929.07
2018-03-26T03:22:08.208Z,929.11
2018-03-26T03:23:08.203Z,929.10
2018-03-26T03:24:08.199Z,929.14
2018-03-26T03:25:08.193Z,929.16
2018-03-26T03:26:08.189Z,929.12
2018-03-26T03:27:08.183Z,929.15
2018-03-26T03:28:08.181Z,929.12
2018-03-26T03:29:08.174Z,929.07
2018-03-26T03:30:08.170Z,929.08
2018-03-26T03:31:08.165Z,929.06
2018-03-26T03:32:08.195Z,929.04
2018-03-26T03:33:08.155Z,929.11
2018-03-26T03:34:08.150Z,929.13
2018-03-26T03:35:08.144Z,929.12
2018-03-26T03:36:08.140Z,929.16
2018-03-26T03:37:08.135Z,929.18
2018-03-26T03:38:08.130Z,929.21
2018-03-26T03:39:08.125Z,929.27
2018-03-26T03:40:08.119Z,929.26
2018-03-26T03:41:08.115Z,929.31
2018-03-26T03:42:08.109Z,929.32
2018-03-26T03:43:08.106Z,929.29
2018-03-26T03:44:08.098Z,929.32
2018-03-26T03:45:08.093Z,929.32
2018-03-26T03:46:08.089Z,929.33
2018-03-26T03:47:08.085Z,929.35
2018-03-26T03:48:08.078Z,929.32
2018-03-26T03:49:08.075Z,929.34
2018-03-26T03:50:08.069Z,929.35
2018-03-26T03:51:08.065Z,929.35
2018-03-26T03:52:08.058Z,929.35
2018-03-26T03:53:08.055Z,929.35
2018-03-26T03:54:08.049Z,929.38
2018-03-26T03:55:08.044Z,929.34
2018-03-26T03:56:08.037Z,929.30
2018-03-26T03:57:08.033Z,929.33
2018-03-26T03:58:08.026Z,929.29
2018-03-26T03:59:08.021Z,929.29
2018-03-26T04:00:08.042Z,929.31
2018-03-26T04:01:08.012Z,929.28
2018-03-26T04:02:08.006Z,929.31
2018-03-26T04:03:08.004Z,929.27
2018-03-26T04:04:07.996Z,929.31
2018-03-26T04:05:07.990Z,929.25
2018-03-26T04:06:07.986Z,929.26
2018-03-26T04:07:07.988Z,929.27
2018-03-26T04:08:07.975Z,929.29
2018-03-26T04:09:07.972Z,929.28
2018-03-26T04:10:07.969Z,929.26
2018-03-26T04:11:07.960Z,929.24
2018-03-26T04:12:07.955Z,929.24
2018-03-26T04:13:07.949Z,929.24
2018-03-26T04:14:07.945Z,929.23
2018-03-26T04:15:07.941Z,929.27
2018-03-26T04:16:07.935Z,929.29
2018-03-26T04:17:07.930Z,929.33
2018-03-26T04:18:07.926Z,929.29
2018-03-26T04:19:07.920Z,929.28
2018-03-26T04:20:07.915Z,929.25
2018-03-26T04:21:07.910Z,929.25
2018-03-26T04:22:07.906Z,929.32
2018-03-26T04:23:07.900Z,929.33
2018-03-26T04:24:07.894Z,929.34
2018-03-26T04:25:07.899Z,929.33
2018-03-26T04:26:07.885Z,929.38
2018-03-26T04:27:07.880Z,929.38
2018-03-26T04:28:07.877Z,929.39
2018-03-26T04:29:07.869Z,929.39
2018-03-26T04:30:07.865Z,929.37
2018-03-26T04:31:07.859Z,929.38
2018-03-26T04:32:07.889Z,929.37
2018-03-26T04:33:07.849Z,929.42
2018-03-26T04:34:07.844Z,929.39
2018-03-26T04:35:07.839Z,929.41
2018-03-26T04:36:07.833Z,929.43
2018-03-26T04:37:07.827Z,929.47
2018-03-26T04:38:07.823Z,929.45
2018-03-26T04:39:07.835Z,929.47
2018-03-26T04:40:07.813Z,929.41
2018-03-26T04:41:07.807Z,929.45
2018-03-26T04:42:07.804Z,929.46
2018-03-26T04:43:07.829Z,929.45
2018-03-26T04:44:07.792Z,929.48
2018-03-26T04:45:07.787Z,929.47
2018-03-26T04:46:07.785Z,929.49
2018-03-26T04:47:07.783Z,929.49
2018-03-26T04:48:07.770Z,929.49
2018-03-26T04:49:07.766Z,929.54
2018-03-26T04:50:07.761Z,929.55
2018-03-26T04:51:07.756Z,929.51
2018-03-26T04:52:07.804Z,929.52
2018-03-26T04:53:07.744Z,929.53
2018-03-26T04:54:07.741Z,929.51
2018-03-26T04:55:07.735Z,929.53
2018-03-26T04:56:07.729Z,929.53
2018-03-26T04:57:07.728Z,929.59
2018-03-26T04:58:07.719Z,929.56
2018-03-26T04:59:07.714Z,929.53
2018-03-26T05:00:07.709Z,929.53
2018-03-26T05:01:07.704Z,929.54
2018-03-26T05:02:07.699Z,929.51
2018-03-26T05:03:07.692Z,929.54
2018-03-26T05:04:07.687Z,929.52
2018-03-26T05:05:07.684Z,929.54
2018-03-26T05:06:07.681Z,929.57
2018-03-26T05:07:07.676Z,929.58
2018-03-26T05:08:07.669Z,929.60
2018-03-26T05:09:07.662Z,929.61
2018-03-26T05:10:07.657Z,929.61
2018-03-26T05:11:07.651Z,929.67
2018-03-26T05:12:07.646Z,929.67
2018-03-26T05:13:07.641Z,929.68
2018-03-26T05:14:07.636Z,929.71
2018-03-26T05:15:07.631Z,929.72
2018-03-26T05:16:07.625Z,929.76
2018-03-26T05:17:07.620Z,929.77
2018-03-26T05:18:07.616Z,929.78
2018-03-26T05:19:07.610Z,929.77
2018-03-26T05:20:07.604Z,929.78
2018-03-26T05:21:07.599Z,929.78
2018-03-26T05:22:07.596Z,929.78
2018-03-26T05:23:07.591Z,929.78
2018-03-26T05:24:07.585Z,929.84
2018-03-26T05:25:07.581Z,929.82
2018-03-26T05:26:07.576Z,929.80
2018-03-26T05:27:07.580Z,929.81
2018-03-26T05:28:07.565Z,929.78
2018-03-26T05:29:07.561Z,929.73
2018-03-26T05:30:07.556Z,929.78
2018-03-26T05:31:07.554Z,929.82
2018-03-26T05:32:07.544Z,929.82
2018-03-26T05:33:07.542Z,929.81
2018-03-26T05:34:07.537Z,929.83
2018-03-26T05:35:07.531Z,929.85
2018-03-26T05:36:07.524Z,929.87
2018-03-26T05:37:07.521Z,929.87
2018-03-26T05:38:07.516Z,929.87
2018-03-26T05:39:07.511Z,929.89
2018-03-26T05:40:07.505Z,929.92
2018-03-26T05:41:07.500Z,929.93
2018-03-26T05:42:07.496Z,929.90
2018-03-26T05:43:07.491Z,929.93
2018-03-26T05:44:07.489Z,929.91
2018-03-26T05:45:07.480Z,929.95
2018-03-26T05:46:07.476Z,929.94
2018-03-26T05:47:07.470Z,929.97
2018-03-26T05:48:07.518Z,930.01
2018-03-26T05:49:07.460Z,929.98
2018-03-26T05:50:07.454Z,930.01
2018-03-26T05:51:07.449Z,930.05
2018-03-26T05:52:07.444Z,930.04
2018-03-26T05:53:07.438Z,930.06
2018-03-26T05:54:07.434Z,930.12
2018-03-26T05:55:07.431Z,930.16
2018-03-26T05:56:07.422Z,930.14
2018-03-26T05:57:07.417Z,930.17
2018-03-26T05:58:07.413Z,930.17
2018-03-26T05:59:07.412Z,930.19
2018-03-26T06:00:07.403Z,930.18
2018-03-26T06:01:07.399Z,930.22
2018-03-26T06:02:07.435Z,930.23
2018-03-26T06:03:07.389Z,930.25
2018-03-26T06:04:07.382Z,930.30
2018-03-26T06:05:07.378Z,930.29
2018-03-26T06:06:07.373Z,930.26
2018-03-26T06:07:07.368Z,930.27
2018-03-26T06:08:07.364Z,930.28
2018-03-26T06:09:07.358Z,930.29
2018-03-26T06:10:07.354Z,930.25
2018-03-26T06:11:07.348Z,930.30
2018-03-26T06:12:07.343Z,930.29
2018-03-26T06:13:07.342Z,930.31
2018-03-26T06:14:07.334Z,930.32
2018-03-26T06:15:07.332Z,930.36
2018-03-26T06:16:07.323Z,930.34
2018-03-26T06:17:07.319Z,930.36
2018-03-26T06:18:07.314Z,930.37
2018-03-26T06:19:07.317Z,930.42
2018-03-26T06:20:07.306Z,930.37
2018-03-26T06:21:07.304Z,930.39
2018-03-26T06:22:07.294Z,930.39
2018-03-26T06:23:07.290Z,930.38
2018-03-26T06:24:07.286Z,930.38
2018-03-26T06:25:07.281Z,930.38
2018-03-26T06:26:07.276Z,930.38
2018-03-26T06:27:07.277Z,930.39
2018-03-26T06:28:07.267Z,930.41
2018-03-26T06:29:07.261Z,930.40
2018-03-26T06:30:07.264Z,930.43
2018-03-26T06:31:07.470Z,930.48
2018-03-26T06:32:07.245Z,930.43
2018-03-26T06:33:07.241Z,930.49
2018-03-26T06:34:07.237Z,930.50
2018-03-26T06:35:07.233Z,930.48
2018-03-26T06:36:07.226Z,930.47
2018-03-26T06:37:07.222Z,930.49
2018-03-26T06:38:07.219Z,930.52
2018-03-26T06:39:07.214Z,930.51
2018-03-26T06:40:07.208Z,930.53
2018-03-26T06:41:07.204Z,930.53
2018-03-26T06:42:07.200Z,930.55
2018-03-26T06:43:07.215Z,930.55
2018-03-26T06:44:07.208Z,930.57
2018-03-26T06:45:07.185Z,930.57
2018-03-26T06:46:07.181Z,930.58
2018-03-26T06:47:07.175Z,930.64
2018-03-26T06:48:07.171Z,930.65
2018-03-26T06:49:07.166Z,930.66
2018-03-26T06:50:07.161Z,930.66
2018-03-26T06:51:07.157Z,930.68
2018-03-26T06:52:07.151Z,930.69
2018-03-26T06:53:07.147Z,930.67
2018-03-26T06:54:07.142Z,930.69
2018-03-26T06:55:07.138Z,930.69
2018-03-26T06:56:07.132Z,930.72
2018-03-26T06:57:07.129Z,930.68
2018-03-26T06:58:07.125Z,930.73
2018-03-26T06:59:07.158Z,930.73
2018-03-26T07:00:07.113Z,930.75
2018-03-26T07:01:07.110Z,930.78
2018-03-26T07:02:07.106Z,930.78
2018-03-26T07:03:07.101Z,930.75
2018-03-26T07:04:07.096Z,930.78
2018-03-26T07:05:07.091Z,930.76
2018-03-26T07:06:07.086Z,930.74
2018-03-26T07:07:07.081Z,930.77
2018-03-26T07:08:07.075Z,930.77
2018-03-26T07:09:07.075Z,930.81
2018-03-26T07:10:07.066Z,930.85
2018-03-26T07:11:07.063Z,930.85
2018-03-26T07:12:07.057Z,930.88
2018-03-26T07:13:07.055Z,930.87
2018-03-26T07:14:07.050Z,930.88
2018-03-26T07:15:07.044Z,930.90
2018-03-26T07:16:07.040Z,930.90
2018-03-26T07:17:07.034Z,930.92
2018-03-26T07:18:07.030Z,930.93
2018-03-26T07:19:07.024Z,930.89
2018-03-26T07:20:07.024Z,930.93
2018-03-26T07:21:07.016Z,930.93
2018-03-26T07:22:07.013Z,930.95
2018-03-26T07:23:07.008Z,930.97
2018-03-26T07:24:07.003Z,930.98
2018-03-26T07:25:06.997Z,930.98
2018-03-26T07:26:06.993Z,930.94
2018-03-26T07:27:06.988Z,930.98
2018-03-26T07:28:06.983Z,930.98
2018-03-26T07:29:06.980Z,930.96
2018-03-26T07:30:06.976Z,930.98
2018-03-26T07:31:06.972Z,930.98
2018-03-26T07:32:06.966Z,930.98
2018-03-26T07:33:06.962Z,930.97
2018-03-26T07:34:06.957Z,931.06
2018-03-26T07:35:06.952Z,931.03
2018-03-26T07:36:06.949Z,931.09
2018-03-26T07:37:06.945Z,931.06
2018-03-26T07:38:06.940Z,931.08
2018-03-26T07:39:06.934Z,931.08
2018-03-26T07:40:06.930Z,931.06
2018-03-26T07:41:06.953Z,931.09
2018-03-26T07:42:06.924Z,931.11
2018-03-26T07:43:06.917Z,931.08
2018-03-26T07:44:06.918Z,931.09
2018-03-26T07:45:06.909Z,931.12
2018-03-26T07:46:06.904Z,931.12
2018-03-26T07:47:07.216Z,931.12
2018-03-26T07:48:06.900Z,931.11
2018-03-26T07:49:06.890Z,931.12
2018-03-26T07:50:06.886Z,931.13
2018-03-26T07:51:06.881Z,931.14
2018-03-26T07:52:06.876Z,931.13
2018-03-26T07:53:06.872Z,931.14
2018-03-26T07:54:06.868Z,931.13
2018-03-26T07:55:06.864Z,931.13
2018-03-26T07:56:06.857Z,931.18
2018-03-26T07:57:06.854Z,931.19
2018-03-26T07:58:06.848Z,931.17
2018-03-26T07:59:06.844Z,931.24
2018-03-26T08:00:06.842Z,931.24
2018-03-26T08:01:06.836Z,931.31
2018-03-26T08:02:06.832Z,931.24
2018-03-26T08:03:06.832Z,931.28
2018-03-26T08:04:06.822Z,931.26
2018-03-26T08:05:06.819Z,931.31
2018-03-26T08:06:06.814Z,931.31
2018-03-26T08:07:06.809Z,931.32
2018-03-26T08:08:06.805Z,931.32
2018-03-26T08:09:06.799Z,931.33
2018-03-26T08:10:06.796Z,931.33
2018-03-26T08:11:06.792Z,931.35
2018-03-26T08:12:06.785Z,931.32
2018-03-26T08:13:06.782Z,931.37
2018-03-26T08:14:06.777Z,931.35
2018-03-26T08:15:06.774Z,931.40
2018-03-26T08:16:06.767Z,931.40
2018-03-26T08:17:06.779Z,931.41
2018-03-26T08:18:06.761Z,931.42
2018-03-26T08:19:06.754Z,931.39
2018-03-26T08:20:06.750Z,931.40
2018-03-26T08:21:06.746Z,931.47
2018-03-26T08:22:06.742Z,931.45
2018-03-26T08:23:06.738Z,931.47
2018-03-26T08:24:06.733Z,931.48
2018-03-26T08:25:06.732Z,931.49
2018-03-26T08:26:06.724Z,931.49
2018-03-26T08:27:06.721Z,931.52
2018-03-26T08:28:06.714Z,931.58
2018-03-26T08:29:07.034Z,931.59
2018-03-26T08:30:06.705Z,931.54
2018-03-26T08:31:06.702Z,931.62
2018-03-26T08:32:06.697Z,931.64
2018-03-26T08:33:06.695Z,931.67
2018-03-26T08:34:06.689Z,931.66
2018-03-26T08:35:06.686Z,931.66
2018-03-26T08:36:06.679Z,931.66
2018-03-26T08:37:06.675Z,931.68
2018-03-26T08:38:06.672Z,931.65
2018-03-26T08:39:06.673Z,931.64
2018-03-26T08:40:06.663Z,931.66
2018-03-26T08:41:06.660Z,931.68
2018-03-26T08:42:06.655Z,931.72
2018-03-26T08:43:06.651Z,931.73
2018-03-26T08:44:06.646Z,931.75
2018-03-26T08:45:06.641Z,931.76
2018-03-26T08:46:06.640Z,931.75
2018-03-26T08:47:06.635Z,931.75
2018-03-26T08:48:06.636Z,931.77
2018-03-26T08:49:06.955Z,931.78
2018-03-26T08:50:06.668Z,931.81
2018-03-26T08:51:06.619Z,931.81
2018-03-26T08:52:06.613Z,931.86
2018-03-26T08:53:06.610Z,931.84
2018-03-26T08:54:06.606Z,931.89
2018-03-26T08:55:06.603Z,931.87
2018-03-26T08:56:06.598Z,931.87
2018-03-26T08:57:06.593Z,931.96
2018-03-26T08:58:06.589Z,931.96
2018-03-26T08:59:06.586Z,931.96
2018-03-26T09:00:06.581Z,931.95
2018-03-26T09:01:06.578Z,932.00
2018-03-26T09:02:06.574Z,931.96
2018-03-26T09:03:06.573Z,931.97
2018-03-26T09:04:06.565Z,931.98
2018-03-26T09:05:06.565Z,931.96
2018-03-26T09:06:06.558Z,931.96
2018-03-26T09:07:06.554Z,931.97
2018-03-26T09:08:06.550Z,932.01
2018-03-26T09:09:06.544Z,931.98
2018-03-26T09:10:06.541Z,931.99
2018-03-26T09:11:06.538Z,931.99
2018-03-26T09:12:06.537Z,932.01
2018-03-26T09:13:06.528Z,932.01
2018-03-26T09:14:06.527Z,932.01
2018-03-26T09:15:06.522Z,932.04
2018-03-26T09:16:06.525Z,932.03
2018-03-26T09:17:06.538Z,932.07
2018-03-26T09:18:06.510Z,932.04
2018-03-26T09:19:06.507Z,932.07
2018-03-26T09:20:06.502Z,932.05
2018-03-26T09:21:06.499Z,932.04
2018-03-26T09:22:06.494Z,932.11
2018-03-26T09:23:06.491Z,932.14
2018-03-26T09:24:06.486Z,932.06
2018-03-26T09:25:06.485Z,932.11
2018-03-26T09:26:06.521Z,932.09
2018-03-26T09:27:06.478Z,932.12
2018-03-26T09:28:06.471Z,932.15
2018-03-26T09:29:06.467Z,932.12
2018-03-26T09:30:06.464Z,932.13
2018-03-26T09:31:06.459Z,932.15
2018-03-26T09:32:06.456Z,932.14
2018-03-26T09:33:06.451Z,932.15
2018-03-26T09:34:06.451Z,932.15
2018-03-26T09:35:06.446Z,932.12
2018-03-26T09:36:06.441Z,932.10
2018-03-26T09:37:06.440Z,932.08
2018-03-26T09:38:06.434Z,932.06
2018-03-26T09:39:06.431Z,932.08
2018-03-26T09:40:06.426Z,932.10
2018-03-26T09:41:06.427Z,932.11
2018-03-26T09:42:06.420Z,932.12
2018-03-26T09:43:06.417Z,932.12
2018-03-26T09:44:06.412Z,932.12
2018-03-26T09:45:06.409Z,932.14
2018-03-26T09:46:06.406Z,932.14
2018-03-26T09:47:06.401Z,932.17
2018-03-26T09:48:06.398Z,932.19
2018-03-26T09:49:06.399Z,932.16
2018-03-26T09:50:06.392Z,932.12
2018-03-26T09:51:06.388Z,932.12
2018-03-26T09:52:06.382Z,932.13
2018-03-26T09:53:06.381Z,932.15
2018-03-26T09:54:06.377Z,932.19
2018-03-26T09:55:06.376Z,932.20
2018-03-26T09:56:06.371Z,932.20
2018-03-26T09:57:06.367Z,932.20
2018-03-26T09:58:06.363Z,932.18
2018-03-26T09:59:06.360Z,932.21
2018-03-26T10:00:06.358Z,932.20
2018-03-26T10:01:06.356Z,932.14
2018-03-26T10:02:06.351Z,932.19
2018-03-26T10:03:06.346Z,932.22
2018-03-26T10:04:06.347Z,932.25
2018-03-26T10:05:06.338Z,932.21
2018-03-26T10:06:06.337Z,932.15
2018-03-26T10:07:06.332Z,932.15
2018-03-26T10:08:06.329Z,932.16
2018-03-26T10:09:06.326Z,932.23
2018-03-26T10:10:06.323Z,932.28
2018-03-26T10:11:06.318Z,932.28
2018-03-26T10:12:06.317Z,932.28
2018-03-26T10:13:06.312Z,932.22
2018-03-26T10:14:06.312Z,932.24
2018-03-26T10:15:06.306Z,932.21
2018-03-26T10:16:06.301Z,932.23
2018-03-26T10:17:06.299Z,932.22
2018-03-26T10:18:06.296Z,932.27
2018-03-26T10:19:06.291Z,932.29
2018-03-26T10:20:06.802Z,932.27
2018-03-26T10:21:06.288Z,932.24
2018-03-26T10:22:06.283Z,932.28
2018-03-26T10:23:06.278Z,932.26
2018-03-26T10:24:06.274Z,932.26
2018-03-26T10:25:06.271Z,932.28
2018-03-26T10:26:06.272Z,932.25
2018-03-26T10:27:06.268Z,932.28
2018-03-26T10:28:06.265Z,932.24
2018-03-26T10:29:06.259Z,932.26
2018-03-26T10:30:06.256Z,932.24
2018-03-26T10:31:06.253Z,932.29
2018-03-26T10:32:06.250Z,932.25
2018-03-26T10:33:06.247Z,932.33
2018-03-26T10:34:06.244Z,932.29
2018-03-26T10:35:06.240Z,932.31
2018-03-26T10:36:06.236Z,932.31
2018-03-26T10:37:06.233Z,932.35
2018-03-26T10:38:06.233Z,932.35
2018-03-26T10:39:06.228Z,932.36
2018-03-26T10:40:06.225Z,932.38
2018-03-26T10:41:06.222Z,932.37
2018-03-26T10:42:06.219Z,932.37
2018-03-26T10:43:06.217Z,932.39
2018-03-26T10:44:06.216Z,932.42
2018-03-26T10:45:06.211Z,932.41
2018-03-26T10:46:06.208Z,932.43
2018-03-26T10:47:06.207Z,932.40
2018-03-26T10:48:06.202Z,932.37
2018-03-26T10:49:06.200Z,932.38
2018-03-26T10:50:06.198Z,932.34
2018-03-26T10:51:06.234Z,932.40
2018-03-26T10:52:06.192Z,932.43
2018-03-26T10:53:06.190Z,932.43
2018-03-26T10:54:06.191Z,932.45
2018-03-26T10:55:06.186Z,932.46
2018-03-26T10:56:06.182Z,932.43
2018-03-26T10:57:06.180Z,932.41
2018-03-26T10:58:06.178Z,932.42
2018-03-26T10:59:06.176Z,932.39
2018-03-26T11:00:06.173Z,932.37
2018-03-26T11:01:06.173Z,932.37
2018-03-26T11:02:06.170Z,932.38
2018-03-26T11:03:06.171Z,932.38
2018-03-26T11:04:06.166Z,932.37
2018-03-26T11:05:06.165Z,932.35
2018-03-26T11:06:06.163Z,932.38
2018-03-26T11:07:06.160Z,932.39
2018-03-26T11:08:06.159Z,932.42
2018-03-26T11:09:06.157Z,932.40
2018-03-26T11:10:06.156Z,932.36
2018-03-26T11:11:06.217Z,932.38
2018-03-26T11:12:06.152Z,932.38
2018-03-26T11:13:06.150Z,932.38
2018-03-26T11:14:06.149Z,932.34
2018-03-26T11:15:06.148Z,932.36
2018-03-26T11:16:06.144Z,932.37
2018-03-26T11:17:06.148Z,932.35
2018-03-26T11:18:06.140Z,932.38
2018-03-26T11:19:06.140Z,932.37
2018-03-26T11:20:06.138Z,932.35
2018-03-26T11:21:06.137Z,932.35
2018-03-26T11:22:06.135Z,932.36
2018-03-26T11:23:06.133Z,932.32
2018-03-26T11:24:06.131Z,932.34
2018-03-26T11:25:06.132Z,932.35
2018-03-26T11:26:06.126Z,932.33
2018-03-26T11:27:06.126Z,932.34
2018-03-26T11:28:06.134Z,932.30
2018-03-26T11:29:06.122Z,932.30
2018-03-26T11:30:06.122Z,932.31
2018-03-26T11:31:06.118Z,932.25
2018-03-26T11:32:06.117Z,932.29
2018-03-26T11:33:06.115Z,932.25
2018-03-26T11:34:06.112Z,932.32
2018-03-26T11:35:06.110Z,932.24
2018-03-26T11:36:06.110Z,932.23
2018-03-26T11:37:06.108Z,932.28
2018-03-26T11:38:06.106Z,932.23
2018-03-26T11:39:06.104Z,932.28
2018-03-26T11:40:06.101Z,932.27
2018-03-26T11:41:06.409Z,932.25
2018-03-26T11:42:06.101Z,932.27
2018-03-26T11:43:06.094Z,932.30
2018-03-26T11:44:06.093Z,932.29
2018-03-26T11:45:06.092Z,932.28
2018-03-26T11:46:06.090Z,932.30
2018-03-26T11:47:06.086Z,932.34
2018-03-26T11:48:06.263Z,932.26
2018-03-26T11:49:06.083Z,932.33
2018-03-26T11:50:06.080Z,932.27
2018-03-26T11:51:06.079Z,932.30
2018-03-26T11:52:06.076Z,932.26
2018-03-26T11:53:06.073Z,932.28
2018-03-26T11:54:06.072Z,932.30
2018-03-26T11:55:06.070Z,932.29
2018-03-26T11:56:06.072Z,932.32
2018-03-26T11:57:06.066Z,932.30
2018-03-26T11:58:06.065Z,932.34
2018-03-26T11:59:06.063Z,932.33
2018-03-26T12:00:06.061Z,932.30
2018-03-26T12:01:06.060Z,932.28
2018-03-26T12:02:06.114Z,932.31
2018-03-26T12:03:06.058Z,932.33
2018-03-26T12:04:06.054Z,932.32
2018-03-26T12:05:06.052Z,932.33
2018-03-26T12:06:06.049Z,932.32
2018-03-26T12:07:06.049Z,932.30
2018-03-26T12:08:06.047Z,932.30
2018-03-26T12:09:06.046Z,932.31
2018-03-26T12:10:06.047Z,932.32
2018-03-26T12:11:06.041Z,932.32
2018-03-26T12:12:06.040Z,932.29
2018-03-26T12:13:06.044Z,932.31
2018-03-26T12:14:06.043Z,932.29
2018-03-26T12:15:06.033Z,932.32
2018-03-26T12:16:06.031Z,932.30
2018-03-26T12:17:06.035Z,932.34
2018-03-26T12:18:06.029Z,932.38
2018-03-26T12:19:06.025Z,932.34
2018-03-26T12:20:06.024Z,932.39
2018-03-26T12:21:06.021Z,932.38
2018-03-26T12:22:06.018Z,932.36
2018-03-26T12:23:06.018Z,932.33
2018-03-26T12:24:06.015Z,932.33
2018-03-26T12:25:06.013Z,932.36
2018-03-26T12:26:06.012Z,932.34
2018-03-26T12:27:06.015Z,932.40
2018-03-26T12:28:06.021Z,932.36